Time,TemperatureF,DewpointF,PressureIn,WindDirection,WindDirectionDegrees,WindSpeedMPH,WindSpeedGustMPH,Humidity,HourlyPrecipIn,Conditions,Clouds,dailyrainin,SoftwareType,DateUTC
2013-07-19 00:01:00,82.7,71.5,29.71,SW,226,7.0,18.0,69,0.00,, +RA,0.97,VWS V14.01,2013-07-19 04:01:00,
2013-07-19 00:02:00,82.8,71.2,29.71,West,267,9.0,13.0,68,0.00,, +RA,0.97,VWS V14.01,2013-07-19 04:02:00,
2013-07-19 00:07:00,82.7,71.5,29.71,WNW,290,8.0,20.0,69,0.00,,-RA,0.00,VWS V14.01,2013-07-19 04:07:00,
2013-07-19 00:12:00,82.7,71.5,29.71,WSW,237,12.0,12.0,69,0.00,,-RA,0.00,VWS V14.01,2013-07-19 04:12:00,
2013-07-19 00:17:00,82.7,71.5,29.70,SSE,157,21.0,23.0,69,0.00,,-RA,0.00,VWS V14.01,2013-07-19 04:17:00,
2013-07-19 00:22:00,82.7,71.5,29.71,West,269,20.0,20.0,69,0.00,,-RA,0.00,VWS V14.01,2013-07-19 04:22:00,
2013-07-19 00:27:00,82.6,71.4,29.70,West,268,9.0,10.0,69,0.00,,-RA,0.00,VWS V14.01,2013-07-19 04:27:00,
2013-07-19 00:32:00,82.5,71.3,29.71,WSW,237,7.0,10.0,69,0.00,,-RA,0.00,VWS V14.01,2013-07-19 04:32:00,
2013-07-19 00:37:00,82.5,71.3,29.72,SW,236,13.0,16.0,69,0.00,,-RA,0.00,VWS V14.01,2013-07-19 04:37:00,
2013-07-19 00:42:00,82.5,71.3,29.71,WNW,287,6.0,9.0,69,0.00,,-RA,0.00,VWS V14.01,2013-07-19 04:42:00,
2013-07-19 00:47:00,82.4,71.2,29.71,WSW,241,8.0,10.0,69,0.00,,-RA,0.00,VWS V14.01,2013-07-19 04:47:00,
2013-07-19 00:55:00,82.2,71.4,29.70,SW,236,19.0,19.0,70,0.00,,-RA,0.00,VWS V14.01,2013-07-19 04:55:00,
2013-07-19 01:00:00,82.1,71.3,29.70,West,264,9.0,14.0,70,0.00,,-RA,0.00,VWS V14.01,2013-07-19 05:00:00,
2013-07-19 01:05:00,82.2,71.4,29.70,WSW,245,10.0,22.0,70,0.00,,OVC001,0.00,VWS V14.01,2013-07-19 05:05:00,
2013-07-19 01:10:00,82.2,71.4,29.70,WSW,246,11.0,11.0,70,0.00,,OVC001,0.00,VWS V14.01,2013-07-19 05:10:00,
2013-07-19 01:15:00,82.1,71.3,29.69,SW,222,12.0,12.0,70,0.00,,OVC001,0.00,VWS V14.01,2013-07-19 05:15:00,
2013-07-19 01:20:00,82.0,71.3,29.70,SW,221,9.0,9.0,70,0.00,,OVC001,0.00,VWS V14.01,2013-07-19 05:20:00,
2013-07-19 01:25:00,81.8,71.5,29.69,WSW,238,21.0,21.0,71,0.00,,OVC001,0.00,VWS V14.01,2013-07-19 05:25:00,
2013-07-19 01:30:00,81.8,71.1,29.69,WSW,240,8.0,11.0,70,0.00,,OVC001,0.00,VWS V14.01,2013-07-19 05:30:00,
2013-07-19 01:35:00,81.8,71.5,29.69,West,264,8.0,30.0,71,0.00,,OVC001,0.00,VWS V14.01,2013-07-19 05:35:00,
2013-07-19 01:40:00,81.8,71.5,29.69,SSW,204,13.0,13.0,71,0.00,,OVC001,0.00,VWS V14.01,2013-07-19 05:40:00,
2013-07-19 01:45:00,81.9,71.6,29.69,WSW,244,11.0,11.0,71,0.00,,OVC001,0.00,VWS V14.01,2013-07-19 05:45:00,
2013-07-19 01:50:00,81.9,71.6,29.70,WSW,240,12.0,16.0,71,0.00,,OVC001,0.00,VWS V14.01,2013-07-19 05:50:00,
2013-07-19 01:55:00,82.1,71.3,29.71,NW,306,13.0,18.0,70,0.00,,OVC001,0.00,VWS V14.01,2013-07-19 05:55:00,
2013-07-19 02:01:00,82.2,71.4,29.69,WSW,255,17.0,17.0,70,0.00,,OVC001,0.00,VWS V14.01,2013-07-19 06:01:00,
2013-07-19 02:06:00,82.1,71.3,29.69,North,11,8.0,21.0,70,0.00,,OVC007,0.00,VWS V14.01,2013-07-19 06:06:00,
2013-07-19 02:11:00,82.0,71.7,29.68,SW,219,11.0,16.0,71,0.00,,OVC007,0.00,VWS V14.01,2013-07-19 06:11:00,
2013-07-19 02:16:00,81.9,71.6,29.68,NW,314,12.0,15.0,71,0.00,,OVC007,0.00,VWS V14.01,2013-07-19 06:16:00,
2013-07-19 02:21:00,81.8,71.5,29.68,NW,309,9.0,10.0,71,0.00,,OVC007,0.00,VWS V14.01,2013-07-19 06:21:00,
2013-07-19 02:26:00,81.8,71.5,29.68,SSW,209,11.0,16.0,71,0.00,,OVC007,0.00,VWS V14.01,2013-07-19 06:26:00,
2013-07-19 02:31:00,81.7,71.4,29.68,WSW,244,11.0,13.0,71,0.00,,OVC007,0.00,VWS V14.01,2013-07-19 06:31:00,
2013-07-19 02:36:00,81.6,71.7,29.68,WSW,252,16.0,17.0,72,0.00,,OVC007,0.00,VWS V14.01,2013-07-19 06:36:00,
2013-07-19 02:41:00,81.5,71.6,29.68,WSW,252,9.0,15.0,72,0.00,,OVC007,0.00,VWS V14.01,2013-07-19 06:41:00,
2013-07-19 02:46:00,81.4,71.1,29.70,NE,34,13.0,20.0,71,0.00,,OVC007,0.00,VWS V14.01,2013-07-19 06:46:00,
2013-07-19 02:51:00,79.3,69.5,29.70,NNE,28,5.0,7.0,72,0.00,,OVC007,0.00,VWS V14.01,2013-07-19 06:51:00,
2013-07-19 02:56:00,77.9,69.7,29.70,NW,306,8.0,12.0,76,0.00,,OVC007,0.00,VWS V14.01,2013-07-19 06:56:00,
2013-07-19 03:01:00,77.8,70.0,29.70,NNE,12,8.0,10.0,77,0.00,,OVC007,0.00,VWS V14.01,2013-07-19 07:01:00,
2013-07-19 03:06:00,77.8,69.2,29.70,NNW,329,5.0,8.0,75,0.00,,-RA,0.00,VWS V14.01,2013-07-19 07:06:00,
2013-07-19 03:11:00,77.4,68.5,29.70,North,11,3.0,4.0,74,0.00,,-RA,0.00,VWS V14.01,2013-07-19 07:11:00,
2013-07-19 03:16:00,76.4,66.7,29.69,ENE,69,5.0,7.0,72,0.00,,-RA,0.00,VWS V14.01,2013-07-19 07:16:00,
2013-07-19 03:21:00,74.9,66.1,29.69,East,80,8.0,10.0,74,0.00,,-RA,0.00,VWS V14.01,2013-07-19 07:21:00,
2013-07-19 03:26:00,73.9,65.5,29.69,ESE,111,3.0,4.0,75,0.00,,-RA,0.00,VWS V14.01,2013-07-19 07:26:00,
2013-07-19 03:31:00,73.3,65.3,29.69,ESE,113,3.0,4.0,76,0.00,,-RA,0.00,VWS V14.01,2013-07-19 07:31:00,
2013-07-19 03:36:00,73.0,65.4,29.68,East,101,1.0,1.0,77,0.00,,-RA,0.00,VWS V14.01,2013-07-19 07:36:00,
2013-07-19 03:41:00,72.8,65.6,29.68,ENE,76,2.0,2.0,78,0.00,,-RA,0.00,VWS V14.01,2013-07-19 07:41:00,
2013-07-19 03:46:00,72.5,65.3,29.68,ESE,107,2.0,3.0,78,0.00,,-RA,0.00,VWS V14.01,2013-07-19 07:46:00,
2013-07-19 03:51:00,72.3,65.1,29.67,ESE,102,2.0,3.0,78,0.00,,-RA,0.00,VWS V14.01,2013-07-19 07:51:00,
2013-07-19 03:56:00,72.1,65.2,29.67,SSE,149,1.0,2.0,79,0.00,,-RA,0.00,VWS V14.01,2013-07-19 07:56:00,
2013-07-19 04:01:00,72.0,65.5,29.66,SE,138,2.0,2.0,80,0.00,,-RA,0.00,VWS V14.01,2013-07-19 08:01:00,
2013-07-19 04:07:00,71.9,65.4,29.66,SE,137,0.0,1.0,80,0.00,,,0.00,VWS V14.01,2013-07-19 08:07:00,
2013-07-19 04:12:00,71.7,65.2,29.66,SSW,213,3.0,3.0,80,0.00,,,0.00,VWS V14.01,2013-07-19 08:12:00,
2013-07-19 04:17:00,71.6,65.5,29.66,SSE,150,1.0,2.0,81,0.00,,,0.00,VWS V14.01,2013-07-19 08:17:00,
2013-07-19 04:22:00,71.5,65.7,29.65,ENE,72,3.0,3.0,82,0.00,,,0.00,VWS V14.01,2013-07-19 08:22:00,
2013-07-19 04:27:00,71.3,65.5,29.65,ESE,103,3.0,4.0,82,0.00,,,0.00,VWS V14.01,2013-07-19 08:27:00,
2013-07-19 04:32:00,71.2,65.4,29.65,ESE,105,2.0,3.0,82,0.00,,,0.00,VWS V14.01,2013-07-19 08:32:00,
2013-07-19 04:37:00,71.2,65.8,29.65,SE,128,2.0,3.0,83,0.00,,,0.00,VWS V14.01,2013-07-19 08:37:00,
2013-07-19 04:42:00,71.2,65.8,29.64,SE,144,1.0,1.0,83,0.00,,,0.00,VWS V14.01,2013-07-19 08:42:00,
2013-07-19 04:47:00,71.2,65.8,29.64,SE,144,0.0,1.0,83,0.00,,,0.00,VWS V14.01,2013-07-19 08:47:00,
2013-07-19 04:52:00,71.2,66.1,29.64,SE,144,1.0,2.0,84,0.00,,,0.00,VWS V14.01,2013-07-19 08:52:00,
2013-07-19 04:57:00,71.5,67.4,29.64,SW,230,0.0,1.0,87,0.00,,,0.00,VWS V14.01,2013-07-19 08:57:00,
2013-07-19 05:02:00,72.1,68.0,29.63,West,264,1.0,3.0,87,0.00,,OVC003,0.00,VWS V14.01,2013-07-19 09:02:00,
2013-07-19 05:07:00,72.6,68.5,29.63,SW,229,3.0,3.0,87,0.00,,OVC003,0.00,VWS V14.01,2013-07-19 09:07:00,
2013-07-19 05:12:00,73.2,69.1,29.63,SW,232,1.0,2.0,87,0.00,,OVC003,0.00,VWS V14.01,2013-07-19 09:12:00,
2013-07-19 05:17:00,73.6,69.2,29.63,WSW,252,2.0,2.0,86,0.00,,OVC003,0.00,VWS V14.01,2013-07-19 09:17:00,
2013-07-19 05:22:00,73.8,69.3,29.62,WSW,251,0.0,1.0,86,0.00,,OVC003,0.00,VWS V14.01,2013-07-19 09:22:00,
2013-07-19 05:27:00,74.1,69.7,29.62,South,177,1.0,1.0,86,0.00,,OVC003,0.00,VWS V14.01,2013-07-19 09:27:00,
2013-07-19 05:32:00,74.6,70.1,29.62,WSW,250,5.0,7.0,86,0.00,,OVC003,0.00,VWS V14.01,2013-07-19 09:32:00,
2013-07-19 05:37:00,75.3,70.5,29.62,WSW,238,10.0,10.0,85,0.00,,OVC003,0.00,VWS V14.01,2013-07-19 09:37:00,
2013-07-19 05:42:00,76.7,70.8,29.61,WSW,238,11.0,11.0,82,0.00,,OVC003,0.00,VWS V14.01,2013-07-19 09:42:00,
2013-07-19 05:47:00,77.7,71.0,29.62,SW,227,6.0,11.0,80,0.00,,OVC003,0.00,VWS V14.01,2013-07-19 09:47:00,
2013-07-19 05:52:00,78.3,71.3,29.61,SW,229,5.0,12.0,79,0.00,,OVC003,0.00,VWS V14.01,2013-07-19 09:52:00,
2013-07-19 05:57:00,78.7,71.3,29.61,West,267,7.0,9.0,78,0.00,,OVC003,0.00,VWS V14.01,2013-07-19 09:57:00,
2013-07-19 06:02:00,79.0,71.2,29.61,WNW,291,8.0,13.0,77,0.00,,OVC003,0.00,VWS V14.01,2013-07-19 10:02:00,
2013-07-19 06:07:00,79.3,71.1,29.60,WSW,254,8.0,14.0,76,0.00,,OVC003,0.00,VWS V14.01,2013-07-19 10:07:00,
2013-07-19 06:12:00,79.4,71.2,29.60,SW,223,14.0,15.0,76,0.00,,OVC003,0.00,VWS V14.01,2013-07-19 10:12:00,
2013-07-19 06:17:00,79.6,71.0,29.60,SW,234,10.0,12.0,75,0.00,,OVC003,0.00,VWS V14.01,2013-07-19 10:17:00,
2013-07-19 06:22:00,79.6,71.0,29.60,SSW,200,15.0,15.0,75,0.00,,OVC003,0.00,VWS V14.01,2013-07-19 10:22:00,
2013-07-19 06:27:00,79.6,71.0,29.59,WSW,254,13.0,13.0,75,0.00,,OVC003,0.00,VWS V14.01,2013-07-19 10:27:00,
2013-07-19 06:32:00,79.6,71.0,29.59,WSW,240,19.0,19.0,75,0.00,,OVC003,0.00,VWS V14.01,2013-07-19 10:32:00,
2013-07-19 06:37:00,79.6,71.0,29.60,SSW,205,3.0,11.0,75,0.00,,OVC003,0.00,VWS V14.01,2013-07-19 10:37:00,
2013-07-19 06:42:00,79.6,71.0,29.60,WSW,240,11.0,11.0,75,0.00,,OVC003,0.00,VWS V14.01,2013-07-19 10:42:00,
2013-07-19 06:47:00,79.7,71.1,29.60,WSW,237,13.0,14.0,75,0.00,,OVC003,0.00,VWS V14.01,2013-07-19 10:47:00,
2013-07-19 06:52:00,79.7,71.1,29.61,South,185,11.0,24.0,75,0.00,,OVC003,0.00,VWS V14.01,2013-07-19 10:52:00,
2013-07-19 06:57:00,79.8,70.8,29.61,SW,235,10.0,13.0,74,0.00,,OVC003,0.00,VWS V14.01,2013-07-19 10:57:00,
2013-07-19 07:02:00,79.8,70.8,29.61,SW,215,9.0,14.0,74,0.00,,CLR,0.00,VWS V14.01,2013-07-19 11:02:00,
2013-07-19 07:07:00,79.8,70.8,29.61,WSW,242,10.0,12.0,74,0.00,,CLR,0.00,VWS V14.01,2013-07-19 11:07:00,
2013-07-19 07:12:00,79.8,70.8,29.60,WSW,244,14.0,17.0,74,0.00,,CLR,0.00,VWS V14.01,2013-07-19 11:12:00,
2013-07-19 07:17:00,79.7,70.7,29.60,SW,236,9.0,10.0,74,0.00,,CLR,0.00,VWS V14.01,2013-07-19 11:17:00,
2013-07-19 07:22:00,79.6,70.6,29.59,West,265,9.0,9.0,74,0.00,,CLR,0.00,VWS V14.01,2013-07-19 11:22:00,
2013-07-19 07:27:00,79.6,70.6,29.58,SW,223,16.0,16.0,74,0.00,,CLR,0.00,VWS V14.01,2013-07-19 11:27:00,
2013-07-19 07:32:00,79.6,70.6,29.58,SSW,206,13.0,15.0,74,0.00,,CLR,0.00,VWS V14.01,2013-07-19 11:32:00,
2013-07-19 07:37:00,79.6,70.6,29.58,West,276,6.0,9.0,74,0.00,,CLR,0.00,VWS V14.01,2013-07-19 11:37:00,
2013-07-19 07:42:00,79.5,70.5,29.58,SW,217,13.0,19.0,74,0.00,,CLR,0.00,VWS V14.01,2013-07-19 11:42:00,
2013-07-19 07:47:00,79.3,70.7,29.58,WSW,237,7.0,13.0,75,0.00,,CLR,0.00,VWS V14.01,2013-07-19 11:47:00,
2013-07-19 07:56:00,79.1,70.5,29.61,North,350,16.0,18.0,75,0.00,,CLR,0.00,VWS V14.01,2013-07-19 11:56:00,
2013-07-19 08:01:00,77.6,69.8,29.63,NNE,23,12.0,15.0,77,0.00,,CLR,0.00,VWS V14.01,2013-07-19 12:01:00,
2013-07-19 08:06:00,75.3,68.7,29.63,SW,215,8.0,8.0,80,0.00,,CLR,0.00,VWS V14.01,2013-07-19 12:06:00,
2013-07-19 08:11:00,73.0,67.9,29.63,NE,51,6.0,7.0,84,0.00,,CLR,0.00,VWS V14.01,2013-07-19 12:11:00,
2013-07-19 08:17:00,71.6,67.9,29.63,NNE,26,4.0,5.0,88,0.05,,CLR,0.05,VWS V14.01,2013-07-19 12:17:00,
2013-07-19 08:22:00,70.8,67.4,29.63,NE,51,3.0,4.0,89,0.10,,CLR,0.10,VWS V14.01,2013-07-19 12:22:00,
2013-07-19 08:27:00,70.3,67.6,29.62,NE,46,3.0,4.0,91,0.11,,CLR,0.11,VWS V14.01,2013-07-19 12:27:00,
2013-07-19 08:32:00,70.1,67.7,29.62,NE,39,0.0,1.0,92,0.11,,CLR,0.11,VWS V14.01,2013-07-19 12:32:00,
2013-07-19 08:37:00,70.1,67.7,29.62,WNW,289,0.0,0.0,92,0.11,,CLR,0.11,VWS V14.01,2013-07-19 12:37:00,
2013-07-19 08:42:00,70.1,67.7,29.63,WNW,289,0.0,0.0,92,0.11,,CLR,0.11,VWS V14.01,2013-07-19 12:42:00,
2013-07-19 08:47:00,70.1,67.7,29.63,WNW,289,1.0,1.0,92,0.11,,CLR,0.11,VWS V14.01,2013-07-19 12:47:00,
2013-07-19 08:52:00,70.0,67.6,29.63,WNW,289,2.0,2.0,92,0.11,,CLR,0.11,VWS V14.01,2013-07-19 12:52:00,
2013-07-19 08:57:00,69.9,67.2,29.63,West,277,2.0,2.0,91,0.11,,CLR,0.11,VWS V14.01,2013-07-19 12:57:00,
2013-07-19 09:02:00,69.9,67.5,29.63,South,171,2.0,2.0,92,0.11,,OVC040,0.11,VWS V14.01,2013-07-19 13:02:00,
2013-07-19 09:07:00,70.0,67.9,29.62,SE,126,2.0,2.0,93,0.11,,OVC040,0.11,VWS V14.01,2013-07-19 13:07:00,
2013-07-19 09:12:00,70.0,68.2,29.62,SSE,166,1.0,1.0,94,0.12,,OVC040,0.12,VWS V14.01,2013-07-19 13:12:00,
2013-07-19 09:17:00,70.1,68.3,29.62,SE,132,1.0,2.0,94,0.12,,OVC040,0.12,VWS V14.01,2013-07-19 13:17:00,
2013-07-19 09:22:00,70.2,68.4,29.62,SSW,207,2.0,2.0,94,0.12,,OVC040,0.12,VWS V14.01,2013-07-19 13:22:00,
2013-07-19 09:26:00,70.3,68.5,29.62,SW,222,2.0,3.0,94,0.12,,OVC040,0.12,VWS V14.01,2013-07-19 13:26:00,
2013-07-19 09:31:00,70.4,68.6,29.63,North,357,4.0,4.0,94,0.12,,OVC040,0.12,VWS V14.01,2013-07-19 13:31:00,
2013-07-19 09:41:00,69.9,67.8,29.61,SE,136,3.0,3.0,93,0.06,,OVC040,0.17,VWS V14.01,2013-07-19 13:41:00,
2013-07-19 10:04:00,69.2,67.4,29.59,SE,134,2.0,4.0,94,0.18,,OVC040,0.29,VWS V14.01,2013-07-19 14:04:00,
2013-07-19 10:09:00,69.3,67.5,29.60,SW,223,3.0,4.0,94,0.18,,OVC040,0.29,VWS V14.01,2013-07-19 14:09:00,
2013-07-19 10:14:00,69.5,68.0,29.60,SW,223,1.0,1.0,95,0.18,,OVC040,0.29,VWS V14.01,2013-07-19 14:14:00,
2013-07-19 10:19:00,70.3,69.1,29.59,SW,225,6.0,6.0,96,0.18,,OVC040,0.29,VWS V14.01,2013-07-19 14:19:00,
2013-07-19 10:24:00,70.9,69.7,29.59,WSW,257,2.0,4.0,96,0.18,,OVC040,0.29,VWS V14.01,2013-07-19 14:24:00,
2013-07-19 10:29:00,71.5,70.0,29.58,WSW,245,6.0,7.0,95,0.18,,OVC040,0.29,VWS V14.01,2013-07-19 14:29:00,
2013-07-19 10:34:00,72.3,70.8,29.57,SSW,208,3.0,6.0,95,0.18,,OVC040,0.30,VWS V14.01,2013-07-19 14:34:00,
2013-07-19 10:39:00,72.7,70.9,29.58,WSW,248,7.0,10.0,94,0.18,,OVC040,0.30,VWS V14.01,2013-07-19 14:39:00,
2013-07-19 10:44:00,72.9,70.8,29.58,West,262,2.0,8.0,93,0.18,,OVC040,0.30,VWS V14.01,2013-07-19 14:44:00,
2013-07-19 10:49:00,73.0,70.5,29.59,SW,227,10.0,10.0,92,0.18,,OVC040,0.30,VWS V14.01,2013-07-19 14:49:00,
2013-07-19 10:54:00,72.9,70.4,29.59,WSW,258,10.0,10.0,92,0.18,,OVC040,0.30,VWS V14.01,2013-07-19 14:54:00,
2013-07-19 10:59:00,72.9,70.4,29.59,WSW,250,12.0,12.0,92,0.18,,OVC040,0.30,VWS V14.01,2013-07-19 14:59:00,
2013-07-19 11:04:00,73.0,70.5,29.59,West,271,3.0,7.0,92,0.01,,SCT016,0.30,VWS V14.01,2013-07-19 15:04:00,
2013-07-19 11:09:00,73.3,70.5,29.58,SW,215,5.0,8.0,91,0.01,,SCT016,0.30,VWS V14.01,2013-07-19 15:09:00,
2013-07-19 11:10:00,73.4,70.6,29.58,WNW,292,5.0,7.0,91,0.01,,SCT016,0.30,VWS V14.01,2013-07-19 15:10:00,
2013-07-19 11:15:00,74.1,71.0,29.58,WNW,297,4.0,4.0,90,0.01,,SCT016,0.30,VWS V14.01,2013-07-19 15:15:00,
2013-07-19 11:20:00,74.6,71.2,29.58,WSW,255,5.0,10.0,89,0.01,,SCT016,0.30,VWS V14.01,2013-07-19 15:20:00,
2013-07-19 11:25:00,74.9,71.1,29.58,West,263,7.0,10.0,88,0.01,,SCT016,0.30,VWS V14.01,2013-07-19 15:25:00,
2013-07-19 11:30:00,75.2,71.4,29.58,SW,225,6.0,10.0,88,0.01,,SCT016,0.30,VWS V14.01,2013-07-19 15:30:00,
2013-07-19 11:35:00,75.9,71.8,29.58,SSW,204,8.0,8.0,87,0.00,,SCT016,0.30,VWS V14.01,2013-07-19 15:35:00,
2013-07-19 11:40:00,76.5,71.7,29.57,West,280,10.0,11.0,85,0.00,,SCT016,0.30,VWS V14.01,2013-07-19 15:40:00,
2013-07-19 11:45:00,76.8,71.6,29.57,WSW,257,9.0,9.0,84,0.00,,SCT016,0.30,VWS V14.01,2013-07-19 15:45:00,
2013-07-19 11:50:00,77.1,71.9,29.57,West,278,10.0,10.0,84,0.00,,SCT016,0.30,VWS V14.01,2013-07-19 15:50:00,
2013-07-19 11:55:00,77.3,72.1,29.57,SSW,192,7.0,10.0,84,0.00,,SCT016,0.30,VWS V14.01,2013-07-19 15:55:00,
2013-07-19 12:00:00,77.7,71.4,29.57,NW,311,4.0,10.0,81,0.00,,SCT016,0.30,VWS V14.01,2013-07-19 16:00:00,
2013-07-19 12:05:00,78.4,72.4,29.57,SW,215,10.0,13.0,82,0.00,,CLR,0.30,VWS V14.01,2013-07-19 16:05:00,
2013-07-19 12:10:00,79.0,72.3,29.57,WSW,237,6.0,19.0,80,0.00,,CLR,0.30,VWS V14.01,2013-07-19 16:10:00,
2013-07-19 12:15:00,79.2,72.1,29.57,WSW,238,14.0,14.0,79,0.00,,CLR,0.30,VWS V14.01,2013-07-19 16:15:00,
2013-07-19 12:20:00,79.4,72.3,29.57,West,261,18.0,18.0,79,0.00,,CLR,0.30,VWS V14.01,2013-07-19 16:20:00,
2013-07-19 12:25:00,79.5,72.0,29.57,SW,235,8.0,13.0,78,0.00,,CLR,0.30,VWS V14.01,2013-07-19 16:25:00,
2013-07-19 12:30:00,79.7,72.2,29.57,WSW,258,8.0,8.0,78,0.00,,CLR,0.30,VWS V14.01,2013-07-19 16:30:00,
2013-07-19 12:35:00,80.1,72.2,29.57,SW,215,5.0,7.0,77,0.00,,CLR,0.30,VWS V14.01,2013-07-19 16:35:00,
2013-07-19 12:40:00,80.1,72.2,29.57,West,279,7.0,7.0,77,0.00,,CLR,0.30,VWS V14.01,2013-07-19 16:40:00,
2013-07-19 12:46:00,80.0,72.2,29.58,WSW,255,14.0,14.0,77,0.00,,CLR,0.30,VWS V14.01,2013-07-19 16:46:00,
2013-07-19 12:51:00,79.9,72.4,29.58,WSW,256,10.0,13.0,78,0.00,,CLR,0.30,VWS V14.01,2013-07-19 16:51:00,
2013-07-19 12:56:00,80.2,71.9,29.58,West,269,10.0,19.0,76,0.00,,CLR,0.30,VWS V14.01,2013-07-19 16:56:00,
2013-07-19 13:01:00,80.2,72.3,29.58,NW,305,14.0,18.0,77,0.00,,CLR,0.30,VWS V14.01,2013-07-19 17:01:00,
2013-07-19 13:06:00,80.2,72.7,29.58,WSW,257,2.0,9.0,78,0.00,,CLR,0.30,VWS V14.01,2013-07-19 17:06:00,
2013-07-19 13:11:00,80.6,72.7,29.58,WSW,245,13.0,13.0,77,0.00,,CLR,0.30,VWS V14.01,2013-07-19 17:11:00,
2013-07-19 13:16:00,80.7,72.4,29.58,WSW,241,9.0,9.0,76,0.00,,CLR,0.30,VWS V14.01,2013-07-19 17:16:00,
2013-07-19 13:21:00,80.8,72.5,29.58,SW,218,11.0,11.0,76,0.00,,CLR,0.30,VWS V14.01,2013-07-19 17:21:00,
2013-07-19 13:26:00,80.9,72.2,29.58,South,169,8.0,12.0,75,0.00,,CLR,0.30,VWS V14.01,2013-07-19 17:26:00,
2013-07-19 13:31:00,80.9,72.6,29.58,WSW,244,14.0,17.0,76,0.00,,CLR,0.30,VWS V14.01,2013-07-19 17:31:00,
2013-07-19 13:36:00,80.7,72.4,29.59,West,281,9.0,15.0,76,0.00,,CLR,0.30,VWS V14.01,2013-07-19 17:36:00,
2013-07-19 13:41:00,80.4,72.2,29.58,NW,315,9.0,12.0,76,0.00,,CLR,0.30,VWS V14.01,2013-07-19 17:41:00,
2013-07-19 13:46:00,80.3,72.1,29.58,West,263,7.0,8.0,76,0.00,,CLR,0.30,VWS V14.01,2013-07-19 17:46:00,
2013-07-19 13:51:00,80.6,71.9,29.58,SW,219,13.0,13.0,75,0.00,,CLR,0.30,VWS V14.01,2013-07-19 17:51:00,
2013-07-19 13:56:00,80.9,72.2,29.58,WSW,242,12.0,15.0,75,0.00,,CLR,0.30,VWS V14.01,2013-07-19 17:56:00,
2013-07-19 14:01:00,81.0,73.1,29.58,West,264,13.0,14.0,77,0.00,,CLR,0.30,VWS V14.01,2013-07-19 18:01:00,
2013-07-19 14:06:00,81.1,72.0,29.59,NW,326,9.0,14.0,74,0.00,,CLR,0.30,VWS V14.01,2013-07-19 18:06:00,
2013-07-19 14:11:00,81.1,72.4,29.59,WSW,242,13.0,16.0,75,0.00,,CLR,0.30,VWS V14.01,2013-07-19 18:11:00,
2013-07-19 14:16:00,81.5,72.8,29.59,WSW,256,7.0,10.0,75,0.00,,CLR,0.30,VWS V14.01,2013-07-19 18:16:00,
2013-07-19 14:21:00,81.6,72.5,29.58,WSW,253,15.0,15.0,74,0.00,,CLR,0.30,VWS V14.01,2013-07-19 18:21:00,
2013-07-19 14:26:00,81.7,72.6,29.58,West,276,13.0,18.0,74,0.00,,CLR,0.30,VWS V14.01,2013-07-19 18:26:00,
2013-07-19 14:31:00,82.0,72.9,29.59,WSW,244,12.0,12.0,74,0.00,,CLR,0.30,VWS V14.01,2013-07-19 18:31:00,
2013-07-19 14:36:00,82.5,73.4,29.59,WSW,251,9.0,9.0,74,0.00,,CLR,0.30,VWS V14.01,2013-07-19 18:36:00,
2013-07-19 14:41:00,82.1,72.2,29.59,WSW,238,15.0,16.0,72,0.00,,CLR,0.30,VWS V14.01,2013-07-19 18:41:00,
2013-07-19 14:46:00,81.0,71.9,29.58,West,279,10.0,13.0,74,0.00,,CLR,0.30,VWS V14.01,2013-07-19 18:46:00,
2013-07-19 14:51:00,80.2,71.9,29.58,SW,215,13.0,13.0,76,0.00,,CLR,0.30,VWS V14.01,2013-07-19 18:51:00,
2013-07-19 14:56:00,79.8,71.6,29.59,WSW,245,17.0,17.0,76,0.00,,CLR,0.30,VWS V14.01,2013-07-19 18:56:00,
2013-07-19 15:01:00,79.6,71.8,29.59,WSW,253,9.0,13.0,77,0.00,,CLR,0.30,VWS V14.01,2013-07-19 19:01:00,
2013-07-19 15:06:00,80.1,72.2,29.59,West,272,7.0,14.0,77,0.00,,CLR,0.30,VWS V14.01,2013-07-19 19:06:00,
2013-07-19 15:11:00,80.6,72.3,29.60,ENE,57,4.0,9.0,76,0.00,,CLR,0.30,VWS V14.01,2013-07-19 19:11:00,
2013-07-19 15:16:00,81.4,72.3,29.60,NNE,16,8.0,11.0,74,0.00,,CLR,0.30,VWS V14.01,2013-07-19 19:16:00,
2013-07-19 15:21:00,81.4,71.9,29.60,NNE,16,7.0,7.0,73,0.00,,CLR,0.30,VWS V14.01,2013-07-19 19:21:00,
2013-07-19 15:26:00,80.7,70.8,29.60,SW,227,7.0,12.0,72,0.00,,CLR,0.30,VWS V14.01,2013-07-19 19:26:00,
2013-07-19 15:31:00,79.5,69.3,29.61,WSW,246,14.0,14.0,71,0.00,,CLR,0.30,VWS V14.01,2013-07-19 19:31:00,
2013-07-19 15:36:00,78.3,68.1,29.61,West,278,8.0,11.0,71,0.00,,CLR,0.30,VWS V14.01,2013-07-19 19:36:00,
2013-07-19 15:41:00,77.4,68.5,29.61,East,98,3.0,10.0,74,0.00,,CLR,0.30,VWS V14.01,2013-07-19 19:41:00,
2013-07-19 15:46:00,77.8,68.5,29.61,WSW,252,10.0,10.0,73,0.00,,CLR,0.30,VWS V14.01,2013-07-19 19:46:00,
2013-07-19 15:52:00,78.1,68.8,29.60,NW,323,4.0,5.0,73,0.00,,CLR,0.30,VWS V14.01,2013-07-19 19:52:00,
2013-07-19 15:57:00,78.7,70.5,29.61,North,357,5.0,7.0,76,0.00,,CLR,0.30,VWS V14.01,2013-07-19 19:57:00,
2013-07-19 16:02:00,78.8,69.0,29.61,North,351,5.0,10.0,72,0.00,,CLR,0.30,VWS V14.01,2013-07-19 20:02:00,
2013-07-19 16:07:00,78.0,69.1,29.61,North,7,9.0,9.0,74,0.00,,CLR,0.30,VWS V14.01,2013-07-19 20:07:00,
2013-07-19 16:12:00,77.6,69.1,29.61,NNW,345,11.0,11.0,75,0.00,,CLR,0.30,VWS V14.01,2013-07-19 20:12:00,
2013-07-19 16:17:00,76.9,68.4,29.61,NNW,337,15.0,15.0,75,0.00,,CLR,0.30,VWS V14.01,2013-07-19 20:17:00,
2013-07-19 16:22:00,77.0,69.2,29.61,NNE,19,7.0,11.0,77,0.00,,CLR,0.30,VWS V14.01,2013-07-19 20:22:00,
2013-07-19 16:27:00,77.5,69.0,29.60,NW,309,10.0,10.0,75,0.00,,CLR,0.30,VWS V14.01,2013-07-19 20:27:00,
2013-07-19 16:32:00,77.8,68.5,29.60,NW,312,3.0,4.0,73,0.00,,CLR,0.30,VWS V14.01,2013-07-19 20:32:00,
2013-07-19 16:37:00,78.0,69.1,29.61,North,357,8.0,9.0,74,0.00,,CLR,0.30,VWS V14.01,2013-07-19 20:37:00,
2013-07-19 16:42:00,77.3,68.0,29.61,NW,317,4.0,6.0,73,0.00,,CLR,0.30,VWS V14.01,2013-07-19 20:42:00,
2013-07-19 16:47:00,76.7,68.2,29.61,NNW,344,8.0,8.0,75,0.00,,CLR,0.30,VWS V14.01,2013-07-19 20:47:00,
2013-07-19 16:52:00,76.2,67.7,29.63,WNW,289,5.0,8.0,75,0.00,,CLR,0.30,VWS V14.01,2013-07-19 20:52:00,
2013-07-19 16:58:00,74.9,68.3,29.63,SSW,211,4.0,4.0,80,0.07,,CLR,0.37,VWS V14.01,2013-07-19 20:58:00,
2013-07-19 17:03:00,73.7,68.6,29.63,NW,322,3.0,3.0,84,0.12,,CLR,0.42,VWS V14.01,2013-07-19 21:03:00,
2013-07-19 17:08:00,72.9,68.8,29.62,NNW,348,9.0,9.0,87,0.12,,CLR,0.42,VWS V14.01,2013-07-19 21:08:00,
2013-07-19 17:13:00,72.6,69.2,29.62,NNW,331,6.0,8.0,89,0.12,,CLR,0.42,VWS V14.01,2013-07-19 21:13:00,
2013-07-19 17:18:00,72.5,69.4,29.63,North,352,3.0,3.0,90,0.12,,CLR,0.42,VWS V14.01,2013-07-19 21:18:00,
2013-07-19 17:23:00,72.5,69.7,29.63,North,351,4.0,5.0,91,0.12,,CLR,0.42,VWS V14.01,2013-07-19 21:23:00,
2013-07-19 17:28:00,72.4,69.3,29.63,West,281,7.0,8.0,90,0.12,,CLR,0.42,VWS V14.01,2013-07-19 21:28:00,
2013-07-19 17:33:00,72.4,69.3,29.63,NW,304,3.0,6.0,90,0.12,,CLR,0.42,VWS V14.01,2013-07-19 21:33:00,
2013-07-19 17:38:00,72.5,69.4,29.63,WNW,300,2.0,4.0,90,0.12,,CLR,0.42,VWS V14.01,2013-07-19 21:38:00,
2013-07-19 17:46:00,72.8,70.0,29.63,NNE,14,3.0,3.0,91,0.12,,CLR,0.42,VWS V14.01,2013-07-19 21:46:00,
2013-07-19 17:51:00,73.0,69.9,29.63,NW,313,5.0,8.0,90,0.12,,CLR,0.42,VWS V14.01,2013-07-19 21:51:00,
2013-07-19 17:56:00,73.2,69.4,29.63,NNW,327,4.0,5.0,88,0.12,,CLR,0.42,VWS V14.01,2013-07-19 21:56:00,
2013-07-19 18:01:00,73.4,69.6,29.63,WNW,300,2.0,2.0,88,0.12,,CLR,0.42,VWS V14.01,2013-07-19 22:01:00,
2013-07-19 18:06:00,73.8,70.0,29.63,NW,304,2.0,4.0,88,0.00,,CLR,0.42,VWS V14.01,2013-07-19 22:06:00,
2013-07-19 18:11:00,74.3,69.8,29.63,NW,309,5.0,5.0,86,0.00,,CLR,0.42,VWS V14.01,2013-07-19 22:11:00,
2013-07-19 18:17:00,74.7,69.6,29.63,WNW,297,5.0,8.0,84,0.00,,CLR,0.42,VWS V14.01,2013-07-19 22:17:00,
2013-07-19 18:22:00,74.9,68.7,29.64,WSW,248,3.0,4.0,81,0.00,,CLR,0.42,VWS V14.01,2013-07-19 22:22:00,
2013-07-19 18:27:00,74.9,68.7,29.63,NW,313,4.0,5.0,81,0.00,,CLR,0.42,VWS V14.01,2013-07-19 22:27:00,
2013-07-19 18:32:00,74.9,68.3,29.64,NW,313,4.0,4.0,80,0.00,,CLR,0.42,VWS V14.01,2013-07-19 22:32:00,
2013-07-19 18:37:00,74.9,68.7,29.64,NW,325,5.0,5.0,81,0.00,,CLR,0.42,VWS V14.01,2013-07-19 22:37:00,
2013-07-19 18:42:00,74.7,68.5,29.64,NW,313,1.0,1.0,81,0.00,,CLR,0.42,VWS V14.01,2013-07-19 22:42:00,
2013-07-19 18:47:00,74.5,67.9,29.64,NW,308,2.0,2.0,80,0.00,,CLR,0.42,VWS V14.01,2013-07-19 22:47:00,
2013-07-19 18:52:00,74.3,67.7,29.64,NNW,339,2.0,2.0,80,0.00,,CLR,0.42,VWS V14.01,2013-07-19 22:52:00,
2013-07-19 18:57:00,74.1,67.9,29.64,NNW,346,3.0,3.0,81,0.00,,CLR,0.42,VWS V14.01,2013-07-19 22:57:00,
2013-07-19 19:02:00,73.9,67.0,29.64,NW,307,1.0,3.0,79,0.00,,CLR,0.42,VWS V14.01,2013-07-19 23:02:00,
2013-07-19 19:07:00,73.7,66.8,29.64,NNW,327,1.0,3.0,79,0.00,,CLR,0.42,VWS V14.01,2013-07-19 23:07:00,
2013-07-19 19:12:00,73.5,66.2,29.65,North,7,5.0,8.0,78,0.00,,CLR,0.42,VWS V14.01,2013-07-19 23:12:00,
2013-07-19 19:17:00,73.6,66.7,29.65,NNW,331,5.0,5.0,79,0.00,,CLR,0.42,VWS V14.01,2013-07-19 23:17:00,
2013-07-19 19:22:00,73.7,66.4,29.65,North,349,2.0,3.0,78,0.00,,CLR,0.42,VWS V14.01,2013-07-19 23:22:00,
2013-07-19 19:27:00,73.7,65.3,29.65,NW,319,3.0,4.0,75,0.00,,CLR,0.42,VWS V14.01,2013-07-19 23:27:00,
2013-07-19 19:32:00,73.7,66.1,29.65,NW,323,2.0,3.0,77,0.00,,CLR,0.42,VWS V14.01,2013-07-19 23:32:00,
2013-07-19 19:37:00,73.6,65.6,29.65,NW,315,3.0,4.0,76,0.00,,CLR,0.42,VWS V14.01,2013-07-19 23:37:00,
2013-07-19 19:42:00,73.5,65.1,29.65,NNE,14,3.0,4.0,75,0.00,,CLR,0.42,VWS V14.01,2013-07-19 23:42:00,
2013-07-19 19:47:00,73.3,64.5,29.66,North,357,4.0,5.0,74,0.00,,CLR,0.42,VWS V14.01,2013-07-19 23:47:00,
2013-07-19 19:52:00,73.2,64.0,29.66,NNW,338,3.0,4.0,73,0.00,,CLR,0.42,VWS V14.01,2013-07-19 23:52:00,
2013-07-19 19:57:00,73.0,64.2,29.66,NNW,344,3.0,3.0,74,0.00,,CLR,0.42,VWS V14.01,2013-07-19 23:57:00,
2013-07-19 20:02:00,72.9,64.1,29.66,North,357,4.0,4.0,74,0.00,,CLR,0.42,VWS V14.01,2013-07-20 00:02:00,
2013-07-19 20:07:00,72.8,64.4,29.66,NNW,344,4.0,5.0,75,0.00,,CLR,0.42,VWS V14.01,2013-07-20 00:07:00,
2013-07-19 20:08:00,72.8,63.7,29.66,North,357,3.0,4.0,73,0.00,,CLR,0.42,VWS V14.01,2013-07-20 00:08:00,
2013-07-19 20:13:00,72.7,63.5,29.67,North,7,2.0,3.0,73,0.00,,CLR,0.42,VWS V14.01,2013-07-20 00:13:00,
2013-07-19 20:18:00,72.7,63.2,29.67,NNW,337,5.0,5.0,72,0.00,,CLR,0.42,VWS V14.01,2013-07-20 00:18:00,
2013-07-19 20:23:00,72.9,63.0,29.67,NNW,346,3.0,3.0,71,0.00,,CLR,0.42,VWS V14.01,2013-07-20 00:23:00,
2013-07-19 20:28:00,73.1,62.7,29.67,North,349,3.0,3.0,70,0.00,,CLR,0.42,VWS V14.01,2013-07-20 00:28:00,
2013-07-19 20:33:00,73.2,62.8,29.67,North,349,4.0,4.0,70,0.00,,CLR,0.42,VWS V14.01,2013-07-20 00:33:00,
2013-07-19 20:38:00,73.1,62.7,29.67,North,2,2.0,3.0,70,0.00,,CLR,0.42,VWS V14.01,2013-07-20 00:38:00,
2013-07-19 20:43:00,73.0,62.7,29.67,NNW,348,2.0,2.0,70,0.00,,CLR,0.42,VWS V14.01,2013-07-20 00:43:00,
2013-07-19 20:48:00,72.7,62.4,29.67,North,7,1.0,1.0,70,0.00,,CLR,0.42,VWS V14.01,2013-07-20 00:48:00,
2013-07-19 20:53:00,72.5,62.2,29.67,NNE,13,1.0,1.0,70,0.00,,CLR,0.42,VWS V14.01,2013-07-20 00:53:00,
2013-07-19 20:58:00,72.2,62.3,29.67,NNE,28,0.0,1.0,71,0.00,,CLR,0.42,VWS V14.01,2013-07-20 00:58:00,
2013-07-19 20:59:00,72.2,62.3,29.67,NNE,28,1.0,1.0,71,0.00,,CLR,0.42,VWS V14.01,2013-07-20 00:59:00,
2013-07-19 21:04:00,71.9,62.0,29.67,NNE,28,0.0,0.0,71,0.00,,CLR,0.42,VWS V14.01,2013-07-20 01:04:00,
2013-07-19 21:09:00,71.7,63.0,29.68,NNE,28,0.0,0.0,74,0.00,,CLR,0.42,VWS V14.01,2013-07-20 01:09:00,
2013-07-19 21:14:00,71.5,63.5,29.68,NNE,28,0.0,0.0,76,0.00,,CLR,0.42,VWS V14.01,2013-07-20 01:14:00,
2013-07-19 21:19:00,70.9,64.1,29.68,NNE,28,0.0,0.0,79,0.00,,CLR,0.42,VWS V14.01,2013-07-20 01:19:00,
2013-07-19 21:24:00,70.4,63.9,29.68,NNE,28,0.0,0.0,80,0.00,,CLR,0.42,VWS V14.01,2013-07-20 01:24:00,
2013-07-19 21:29:00,69.8,63.0,29.68,NNE,28,1.0,1.0,79,0.00,,CLR,0.42,VWS V14.01,2013-07-20 01:29:00,
2013-07-19 21:34:00,69.4,63.0,29.68,NNE,28,0.0,0.0,80,0.00,,CLR,0.42,VWS V14.01,2013-07-20 01:34:00,
2013-07-19 21:39:00,68.9,62.8,29.69,NNE,28,0.0,0.0,81,0.00,,CLR,0.42,VWS V14.01,2013-07-20 01:39:00,
2013-07-19 21:44:00,68.4,62.3,29.68,NNE,28,1.0,1.0,81,0.00,,CLR,0.42,VWS V14.01,2013-07-20 01:44:00,
2013-07-19 21:49:00,68.0,62.7,29.68,NNE,28,0.0,0.0,83,0.00,,CLR,0.42,VWS V14.01,2013-07-20 01:49:00,
2013-07-19 21:54:00,67.6,62.3,29.69,NNE,28,0.0,1.0,83,0.00,,CLR,0.42,VWS V14.01,2013-07-20 01:54:00,
2013-07-19 21:59:00,67.2,62.2,29.69,NNE,28,0.0,0.0,84,0.00,,CLR,0.42,VWS V14.01,2013-07-20 01:59:00,
2013-07-19 22:04:00,66.7,61.7,29.69,NNE,28,0.0,0.0,84,0.00,,FEW100,0.42,VWS V14.01,2013-07-20 02:04:00,
2013-07-19 22:09:00,66.2,61.6,29.69,NNE,28,1.0,1.0,85,0.00,,FEW100,0.42,VWS V14.01,2013-07-20 02:09:00,
2013-07-19 22:14:00,65.7,61.1,29.70,NNE,28,0.0,0.0,85,0.00,,FEW100,0.42,VWS V14.01,2013-07-20 02:14:00,
2013-07-19 22:19:00,65.2,61.2,29.70,NE,53,2.0,2.0,87,0.00,,FEW100,0.42,VWS V14.01,2013-07-20 02:19:00,
2013-07-19 22:24:00,64.5,61.2,29.70,ENE,73,1.0,2.0,89,0.00,,FEW100,0.42,VWS V14.01,2013-07-20 02:24:00,
2013-07-19 22:29:00,64.3,61.0,29.70,ESE,103,0.0,0.0,89,0.00,,FEW100,0.42,VWS V14.01,2013-07-20 02:29:00,
2013-07-19 22:34:00,64.1,60.8,29.70,ESE,103,0.0,1.0,89,0.00,,FEW100,0.42,VWS V14.01,2013-07-20 02:34:00,
2013-07-19 22:40:00,63.8,60.5,29.70,ESE,103,1.0,1.0,89,0.00,,FEW100,0.42,VWS V14.01,2013-07-20 02:40:00,
2013-07-19 22:45:00,63.4,60.1,29.70,ESE,103,0.0,1.0,89,0.00,,FEW100,0.42,VWS V14.01,2013-07-20 02:45:00,
2013-07-19 22:50:00,63.1,59.8,29.70,ESE,103,0.0,1.0,89,0.00,,FEW100,0.42,VWS V14.01,2013-07-20 02:50:00,
2013-07-19 22:55:00,62.9,59.9,29.70,ESE,103,0.0,1.0,90,0.00,,FEW100,0.42,VWS V14.01,2013-07-20 02:55:00,
2013-07-19 23:00:00,62.7,59.7,29.70,ESE,103,1.0,1.0,90,0.00,,FEW100,0.42,VWS V14.01,2013-07-20 03:00:00,
2013-07-19 23:05:00,62.4,59.4,29.70,ESE,105,1.0,1.0,90,0.00,,OVC100,0.42,VWS V14.01,2013-07-20 03:05:00,
2013-07-19 23:10:00,62.1,59.5,29.70,ESE,105,0.0,0.0,91,0.00,,OVC100,0.42,VWS V14.01,2013-07-20 03:10:00,
2013-07-19 23:15:00,61.9,59.2,29.70,ESE,105,0.0,1.0,91,0.00,,OVC100,0.42,VWS V14.01,2013-07-20 03:15:00,
2013-07-19 23:20:00,61.7,59.0,29.70,ESE,105,1.0,1.0,91,0.00,,OVC100,0.42,VWS V14.01,2013-07-20 03:20:00,
2013-07-19 23:25:00,61.6,59.0,29.70,ESE,105,0.0,0.0,91,0.00,,OVC100,0.42,VWS V14.01,2013-07-20 03:25:00,
2013-07-19 23:30:00,61.4,58.8,29.70,ESE,105,0.0,0.0,91,0.00,,OVC100,0.42,VWS V14.01,2013-07-20 03:30:00,
2013-07-19 23:35:00,61.2,58.6,29.70,ESE,105,0.0,0.0,91,0.00,,OVC100,0.42,VWS V14.01,2013-07-20 03:35:00,
2013-07-19 23:40:00,61.0,58.4,29.70,ESE,105,0.0,0.0,91,0.00,,OVC100,0.42,VWS V14.01,2013-07-20 03:40:00,
2013-07-19 23:45:00,60.7,58.1,29.70,ESE,105,0.0,0.0,91,0.00,,OVC100,0.42,VWS V14.01,2013-07-20 03:45:00,
2013-07-19 23:50:00,60.5,58.2,29.70,ESE,105,0.0,0.0,92,0.00,,OVC100,0.42,VWS V14.01,2013-07-20 03:50:00,
2013-07-19 23:55:00,60.3,57.7,29.70,ESE,105,0.0,0.0,91,0.00,,OVC100,0.42,VWS V14.01,2013-07-20 03:55:00,